sensor_id;sensor_type;location;lat;lon;timestamp;temperature;humidity
19552;DHT22;9921;47.186;9.778;2022-08-21T00:00:39;16.60;99.90
19552;DHT22;9921;47.186;9.778;2022-08-21T00:03:08;16.60;99.90
19552;DHT22;9921;47.186;9.778;2022-08-21T00:05:39;16.60;99.90
19552;DHT22;9921;47.186;9.778;2022-08-21T00:08:06;16.60;99.90
19552;DHT22;9921;47.186;9.778;2022-08-21T00:10:34;16.60;99.90
19552;DHT22;9921;47.186;9.778;2022-08-21T00:13:01;16.60;99.90
19552;DHT22;9921;47.186;9.778;2022-08-21T00:15:30;16.60;99.90
19552;DHT22;9921;47.186;9.778;2022-08-21T00:17:58;16.60;99.90
19552;DHT22;9921;47.186;9.778;2022-08-21T00:20:25;16.60;99.90
19552;DHT22;9921;47.186;9.778;2022-08-21T00:22:52;16.50;99.90
19552;DHT22;9921;47.186;9.778;2022-08-21T00:25:20;16.50;99.90
19552;DHT22;9921;47.186;9.778;2022-08-21T00:27:47;16.40;99.90
19552;DHT22;9921;47.186;9.778;2022-08-21T00:30:16;16.30;99.90
19552;DHT22;9921;47.186;9.778;2022-08-21T00:32:45;16.40;99.90
19552;DHT22;9921;47.186;9.778;2022-08-21T00:35:14;16.50;99.90
19552;DHT22;9921;47.186;9.778;2022-08-21T00:37:42;16.40;99.90
19552;DHT22;9921;47.186;9.778;2022-08-21T00:40:12;16.40;99.90
19552;DHT22;9921;47.186;9.778;2022-08-21T00:42:41;16.30;99.90
19552;DHT22;9921;47.186;9.778;2022-08-21T00:45:09;16.40;99.90
19552;DHT22;9921;47.186;9.778;2022-08-21T00:47:37;16.30;99.90
19552;DHT22;9921;47.186;9.778;2022-08-21T00:50:07;15.90;99.90
19552;DHT22;9921;47.186;9.778;2022-08-21T00:52:36;16.00;99.90
19552;DHT22;9921;47.186;9.778;2022-08-21T00:55:04;16.00;99.90
19552;DHT22;9921;47.186;9.778;2022-08-21T00:57:36;16.10;99.90
19552;DHT22;9921;47.186;9.778;2022-08-21T01:00:08;16.20;99.90
19552;DHT22;9921;47.186;9.778;2022-08-21T01:02:35;16.20;99.90
19552;DHT22;9921;47.186;9.778;2022-08-21T01:05:04;16.00;99.90
19552;DHT22;9921;47.186;9.778;2022-08-21T01:07:32;16.00;99.90
19552;DHT22;9921;47.186;9.778;2022-08-21T01:09:59;16.00;99.90
19552;DHT22;9921;47.186;9.778;2022-08-21T01:12:26;16.00;99.90
19552;DHT22;9921;47.186;9.778;2022-08-21T01:14:53;16.00;99.90
19552;DHT22;9921;47.186;9.778;2022-08-21T01:17:21;16.00;99.90
19552;DHT22;9921;47.186;9.778;2022-08-21T01:19:48;16.00;99.90
19552;DHT22;9921;47.186;9.778;2022-08-21T01:22:16;16.00;99.90
19552;DHT22;9921;47.186;9.778;2022-08-21T01:24:45;16.10;99.90
19552;DHT22;9921;47.186;9.778;2022-08-21T01:27:11;16.00;99.90
19552;DHT22;9921;47.186;9.778;2022-08-21T01:29:43;16.00;99.90
19552;DHT22;9921;47.186;9.778;2022-08-21T01:32:14;16.00;99.90
19552;DHT22;9921;47.186;9.778;2022-08-21T01:34:44;16.00;99.90
19552;DHT22;9921;47.186;9.778;2022-08-21T01:37:12;16.00;99.90
19552;DHT22;9921;47.186;9.778;2022-08-21T01:39:40;16.00;99.90
19552;DHT22;9921;47.186;9.778;2022-08-21T01:42:08;16.00;99.90
19552;DHT22;9921;47.186;9.778;2022-08-21T01:44:35;16.00;99.90
19552;DHT22;9921;47.186;9.778;2022-08-21T01:47:06;16.00;99.90
19552;DHT22;9921;47.186;9.778;2022-08-21T01:49:34;16.00;99.90
19552;DHT22;9921;47.186;9.778;2022-08-21T01:52:01;16.00;99.90
19552;DHT22;9921;47.186;9.778;2022-08-21T01:54:29;16.00;99.90
19552;DHT22;9921;47.186;9.778;2022-08-21T01:56:58;16.00;99.90
19552;DHT22;9921;47.186;9.778;2022-08-21T01:59:26;15.80;99.90
19552;DHT22;9921;47.186;9.778;2022-08-21T02:01:53;15.60;99.90
19552;DHT22;9921;47.186;9.778;2022-08-21T02:04:20;15.60;99.90
19552;DHT22;9921;47.186;9.778;2022-08-21T02:06:48;15.70;99.90
19552;DHT22;9921;47.186;9.778;2022-08-21T02:09:16;15.80;99.90
19552;DHT22;9921;47.186;9.778;2022-08-21T02:11:43;15.80;99.90
19552;DHT22;9921;47.186;9.778;2022-08-21T02:14:13;15.80;99.90
19552;DHT22;9921;47.186;9.778;2022-08-21T02:16:42;15.70;99.90
19552;DHT22;9921;47.186;9.778;2022-08-21T02:19:10;15.80;99.90
19552;DHT22;9921;47.186;9.778;2022-08-21T02:21:38;15.70;99.90
19552;DHT22;9921;47.186;9.778;2022-08-21T02:24:05;15.40;99.90
19552;DHT22;9921;47.186;9.778;2022-08-21T02:26:33;15.50;99.90
19552;DHT22;9921;47.186;9.778;2022-08-21T02:29:01;15.40;99.90
19552;DHT22;9921;47.186;9.778;2022-08-21T02:31:30;15.40;99.90
19552;DHT22;9921;47.186;9.778;2022-08-21T02:33:57;15.40;99.90
19552;DHT22;9921;47.186;9.778;2022-08-21T02:36:25;15.30;99.90
19552;DHT22;9921;47.186;9.778;2022-08-21T02:38:52;15.30;99.90
19552;DHT22;9921;47.186;9.778;2022-08-21T02:41:20;15.40;99.90
19552;DHT22;9921;47.186;9.778;2022-08-21T02:43:47;15.40;99.90
19552;DHT22;9921;47.186;9.778;2022-08-21T02:46:17;15.40;99.90
19552;DHT22;9921;47.186;9.778;2022-08-21T02:48:46;15.50;99.90
19552;DHT22;9921;47.186;9.778;2022-08-21T02:51:15;15.50;99.90
19552;DHT22;9921;47.186;9.778;2022-08-21T02:53:43;15.50;99.90
19552;DHT22;9921;47.186;9.778;2022-08-21T02:56:13;15.50;99.90
19552;DHT22;9921;47.186;9.778;2022-08-21T02:58:43;15.50;99.90
19552;DHT22;9921;47.186;9.778;2022-08-21T03:01:11;15.30;99.90
19552;DHT22;9921;47.186;9.778;2022-08-21T03:03:40;15.40;99.90
19552;DHT22;9921;47.186;9.778;2022-08-21T03:06:10;15.50;99.90
19552;DHT22;9921;47.186;9.778;2022-08-21T03:08:37;15.50;99.90
19552;DHT22;9921;47.186;9.778;2022-08-21T03:11:05;15.60;99.90
19552;DHT22;9921;47.186;9.778;2022-08-21T03:13:32;15.60;99.90
19552;DHT22;9921;47.186;9.778;2022-08-21T03:15:59;15.70;99.90
19552;DHT22;9921;47.186;9.778;2022-08-21T03:18:26;15.70;99.90
19552;DHT22;9921;47.186;9.778;2022-08-21T03:20:53;15.80;99.90
19552;DHT22;9921;47.186;9.778;2022-08-21T03:23:22;15.70;99.90
19552;DHT22;9921;47.186;9.778;2022-08-21T03:25:49;15.60;99.90
19552;DHT22;9921;47.186;9.778;2022-08-21T03:28:20;15.60;99.90
19552;DHT22;9921;47.186;9.778;2022-08-21T03:30:49;15.30;99.90
19552;DHT22;9921;47.186;9.778;2022-08-21T03:33:17;15.20;99.90
19552;DHT22;9921;47.186;9.778;2022-08-21T03:35:47;15.10;99.90
19552;DHT22;9921;47.186;9.778;2022-08-21T03:38:14;15.10;99.90
19552;DHT22;9921;47.186;9.778;2022-08-21T03:40:43;14.90;99.90
19552;DHT22;9921;47.186;9.778;2022-08-21T03:43:10;14.90;99.90
19552;DHT22;9921;47.186;9.778;2022-08-21T03:45:37;15.00;99.90
19552;DHT22;9921;47.186;9.778;2022-08-21T03:48:05;15.00;99.90
19552;DHT22;9921;47.186;9.778;2022-08-21T03:50:35;15.10;99.90
19552;DHT22;9921;47.186;9.778;2022-08-21T03:53:03;15.00;99.90
19552;DHT22;9921;47.186;9.778;2022-08-21T03:55:30;15.10;99.90
19552;DHT22;9921;47.186;9.778;2022-08-21T03:57:58;15.20;99.90
19552;DHT22;9921;47.186;9.778;2022-08-21T04:00:25;15.20;99.90
19552;DHT22;9921;47.186;9.778;2022-08-21T04:02:52;15.20;99.90
19552;DHT22;9921;47.186;9.778;2022-08-21T04:05:19;15.20;99.90
19552;DHT22;9921;47.186;9.778;2022-08-21T04:07:54;15.20;99.90
19552;DHT22;9921;47.186;9.778;2022-08-21T04:10:21;15.10;99.90
19552;DHT22;9921;47.186;9.778;2022-08-21T04:12:49;15.10;99.90
19552;DHT22;9921;47.186;9.778;2022-08-21T04:15:17;15.10;99.90
19552;DHT22;9921;47.186;9.778;2022-08-21T04:17:44;15.00;99.90
19552;DHT22;9921;47.186;9.778;2022-08-21T04:20:11;15.00;99.90
19552;DHT22;9921;47.186;9.778;2022-08-21T04:22:38;15.00;99.90
19552;DHT22;9921;47.186;9.778;2022-08-21T04:25:06;14.80;99.90
19552;DHT22;9921;47.186;9.778;2022-08-21T04:27:33;14.70;99.90
19552;DHT22;9921;47.186;9.778;2022-08-21T04:30:00;14.70;99.90
19552;DHT22;9921;47.186;9.778;2022-08-21T04:32:28;14.80;99.90
19552;DHT22;9921;47.186;9.778;2022-08-21T04:35:00;14.80;99.90
19552;DHT22;9921;47.186;9.778;2022-08-21T04:37:27;14.70;99.90
19552;DHT22;9921;47.186;9.778;2022-08-21T04:39:54;14.70;99.90
19552;DHT22;9921;47.186;9.778;2022-08-21T04:42:23;14.80;99.90
19552;DHT22;9921;47.186;9.778;2022-08-21T04:44:50;14.80;99.90
19552;DHT22;9921;47.186;9.778;2022-08-21T04:47:17;14.80;99.90
19552;DHT22;9921;47.186;9.778;2022-08-21T04:49:46;14.90;99.90
19552;DHT22;9921;47.186;9.778;2022-08-21T04:52:15;15.00;99.90
19552;DHT22;9921;47.186;9.778;2022-08-21T04:54:44;15.00;99.90
19552;DHT22;9921;47.186;9.778;2022-08-21T04:57:13;15.00;99.90
19552;DHT22;9921;47.186;9.778;2022-08-21T04:59:44;14.80;99.90
19552;DHT22;9921;47.186;9.778;2022-08-21T05:02:12;14.80;99.90
19552;DHT22;9921;47.186;9.778;2022-08-21T05:04:43;14.80;99.90
19552;DHT22;9921;47.186;9.778;2022-08-21T05:07:16;14.90;99.90
19552;DHT22;9921;47.186;9.778;2022-08-21T05:09:43;15.00;99.90
19552;DHT22;9921;47.186;9.778;2022-08-21T05:12:11;14.90;99.90
19552;DHT22;9921;47.186;9.778;2022-08-21T05:14:38;14.90;99.90
19552;DHT22;9921;47.186;9.778;2022-08-21T05:17:05;14.90;99.90
19552;DHT22;9921;47.186;9.778;2022-08-21T05:19:32;15.00;99.90
19552;DHT22;9921;47.186;9.778;2022-08-21T05:21:59;15.00;99.90
19552;DHT22;9921;47.186;9.778;2022-08-21T05:24:27;14.90;99.90
19552;DHT22;9921;47.186;9.778;2022-08-21T05:26:54;14.90;99.90
19552;DHT22;9921;47.186;9.778;2022-08-21T05:29:21;14.90;99.90
19552;DHT22;9921;47.186;9.778;2022-08-21T05:31:48;14.90;99.90
19552;DHT22;9921;47.186;9.778;2022-08-21T05:34:19;15.00;99.90
19552;DHT22;9921;47.186;9.778;2022-08-21T05:36:46;14.90;99.90
19552;DHT22;9921;47.186;9.778;2022-08-21T05:39:13;15.00;99.90
19552;DHT22;9921;47.186;9.778;2022-08-21T05:41:42;15.00;99.90
19552;DHT22;9921;47.186;9.778;2022-08-21T05:44:09;15.00;99.90
19552;DHT22;9921;47.186;9.778;2022-08-21T05:46:36;15.00;99.90
19552;DHT22;9921;47.186;9.778;2022-08-21T05:49:03;15.10;99.90
19552;DHT22;9921;47.186;9.778;2022-08-21T05:51:30;15.00;99.90
19552;DHT22;9921;47.186;9.778;2022-08-21T05:53:57;15.00;99.90
19552;DHT22;9921;47.186;9.778;2022-08-21T05:56:24;14.90;99.90
19552;DHT22;9921;47.186;9.778;2022-08-21T05:58:52;15.00;99.90
19552;DHT22;9921;47.186;9.778;2022-08-21T06:01:19;14.90;99.90
19552;DHT22;9921;47.186;9.778;2022-08-21T06:03:46;15.00;99.90
19552;DHT22;9921;47.186;9.778;2022-08-21T06:06:13;15.00;99.90
19552;DHT22;9921;47.186;9.778;2022-08-21T06:08:41;15.00;99.90
19552;DHT22;9921;47.186;9.778;2022-08-21T06:11:09;15.10;99.90
19552;DHT22;9921;47.186;9.778;2022-08-21T06:13:36;15.20;99.90
19552;DHT22;9921;47.186;9.778;2022-08-21T06:16:08;15.20;99.90
19552;DHT22;9921;47.186;9.778;2022-08-21T06:18:36;15.20;99.90
19552;DHT22;9921;47.186;9.778;2022-08-21T06:21:04;15.10;99.90
19552;DHT22;9921;47.186;9.778;2022-08-21T06:23:32;15.10;99.90
19552;DHT22;9921;47.186;9.778;2022-08-21T06:25:59;15.10;99.90
19552;DHT22;9921;47.186;9.778;2022-08-21T06:28:27;15.10;99.90
19552;DHT22;9921;47.186;9.778;2022-08-21T06:30:54;15.20;99.90
19552;DHT22;9921;47.186;9.778;2022-08-21T06:33:22;15.40;99.90
19552;DHT22;9921;47.186;9.778;2022-08-21T06:35:50;15.60;99.90
19552;DHT22;9921;47.186;9.778;2022-08-21T06:38:17;15.70;99.90
19552;DHT22;9921;47.186;9.778;2022-08-21T06:40:45;15.80;99.90
19552;DHT22;9921;47.186;9.778;2022-08-21T06:43:14;15.90;99.90
19552;DHT22;9921;47.186;9.778;2022-08-21T06:45:41;16.00;99.90
19552;DHT22;9921;47.186;9.778;2022-08-21T06:48:08;16.20;99.90
19552;DHT22;9921;47.186;9.778;2022-08-21T06:50:36;16.30;99.90
19552;DHT22;9921;47.186;9.778;2022-08-21T06:53:06;16.40;99.90
19552;DHT22;9921;47.186;9.778;2022-08-21T06:55:34;16.60;99.90
19552;DHT22;9921;47.186;9.778;2022-08-21T06:58:03;16.70;99.90
19552;DHT22;9921;47.186;9.778;2022-08-21T07:00:30;16.80;99.90
19552;DHT22;9921;47.186;9.778;2022-08-21T07:02:57;16.90;99.90
19552;DHT22;9921;47.186;9.778;2022-08-21T07:05:26;17.00;99.90
19552;DHT22;9921;47.186;9.778;2022-08-21T07:07:55;17.10;99.90
19552;DHT22;9921;47.186;9.778;2022-08-21T07:10:22;17.20;99.90
19552;DHT22;9921;47.186;9.778;2022-08-21T07:12:50;17.30;99.90
19552;DHT22;9921;47.186;9.778;2022-08-21T07:15:18;17.40;99.90
19552;DHT22;9921;47.186;9.778;2022-08-21T07:17:45;17.40;99.90
19552;DHT22;9921;47.186;9.778;2022-08-21T07:20:12;17.50;99.90
19552;DHT22;9921;47.186;9.778;2022-08-21T07:22:39;17.60;99.90
19552;DHT22;9921;47.186;9.778;2022-08-21T07:25:09;17.80;99.90
19552;DHT22;9921;47.186;9.778;2022-08-21T07:27:36;17.80;99.90
19552;DHT22;9921;47.186;9.778;2022-08-21T07:30:04;17.90;99.90
19552;DHT22;9921;47.186;9.778;2022-08-21T07:32:31;18.00;99.90
19552;DHT22;9921;47.186;9.778;2022-08-21T07:34:58;18.00;99.90
19552;DHT22;9921;47.186;9.778;2022-08-21T07:37:25;18.10;99.90
19552;DHT22;9921;47.186;9.778;2022-08-21T07:39:52;18.20;99.90
19552;DHT22;9921;47.186;9.778;2022-08-21T07:42:20;18.30;99.90
19552;DHT22;9921;47.186;9.778;2022-08-21T07:44:47;18.40;99.90
19552;DHT22;9921;47.186;9.778;2022-08-21T07:47:14;18.40;99.90
19552;DHT22;9921;47.186;9.778;2022-08-21T07:49:41;18.50;99.90
19552;DHT22;9921;47.186;9.778;2022-08-21T07:52:08;18.60;99.90
19552;DHT22;9921;47.186;9.778;2022-08-21T07:54:35;18.60;99.90
19552;DHT22;9921;47.186;9.778;2022-08-21T07:57:01;18.70;99.90
19552;DHT22;9921;47.186;9.778;2022-08-21T07:59:30;18.80;99.90
19552;DHT22;9921;47.186;9.778;2022-08-21T08:01:57;18.90;99.90
19552;DHT22;9921;47.186;9.778;2022-08-21T08:04:24;19.00;99.90
19552;DHT22;9921;47.186;9.778;2022-08-21T08:06:51;19.10;99.90
19552;DHT22;9921;47.186;9.778;2022-08-21T08:09:18;19.20;99.90
19552;DHT22;9921;47.186;9.778;2022-08-21T08:11:45;19.30;99.90
19552;DHT22;9921;47.186;9.778;2022-08-21T08:14:12;19.40;99.90
19552;DHT22;9921;47.186;9.778;2022-08-21T08:16:40;19.60;99.90
19552;DHT22;9921;47.186;9.778;2022-08-21T08:19:07;19.90;99.90
19552;DHT22;9921;47.186;9.778;2022-08-21T08:21:34;20.50;99.90
19552;DHT22;9921;47.186;9.778;2022-08-21T08:24:03;21.90;99.90
19552;DHT22;9921;47.186;9.778;2022-08-21T08:26:30;24.50;99.90
19552;DHT22;9921;47.186;9.778;2022-08-21T08:28:57;27.30;99.90
19552;DHT22;9921;47.186;9.778;2022-08-21T08:31:24;29.90;99.90
19552;DHT22;9921;47.186;9.778;2022-08-21T08:33:52;32.30;99.90
19552;DHT22;9921;47.186;9.778;2022-08-21T08:36:19;34.00;99.90
19552;DHT22;9921;47.186;9.778;2022-08-21T08:38:46;35.20;98.00
19552;DHT22;9921;47.186;9.778;2022-08-21T08:41:16;36.40;94.40
19552;DHT22;9921;47.186;9.778;2022-08-21T08:43:50;37.40;90.90
19552;DHT22;9921;47.186;9.778;2022-08-21T08:46:20;38.00;87.20
19552;DHT22;9921;47.186;9.778;2022-08-21T08:48:57;38.40;83.50
19552;DHT22;9921;47.186;9.778;2022-08-21T08:51:34;39.00;83.40
19552;DHT22;9921;47.186;9.778;2022-08-21T08:54:07;39.80;79.30
19552;DHT22;9921;47.186;9.778;2022-08-21T08:56:36;40.30;77.70
19552;DHT22;9921;47.186;9.778;2022-08-21T08:59:08;40.70;74.50
19552;DHT22;9921;47.186;9.778;2022-08-21T09:01:36;41.10;72.20
19552;DHT22;9921;47.186;9.778;2022-08-21T09:04:05;41.30;67.30
19552;DHT22;9921;47.186;9.778;2022-08-21T09:06:40;41.10;66.00
19552;DHT22;9921;47.186;9.778;2022-08-21T09:09:17;41.20;65.60
19552;DHT22;9921;47.186;9.778;2022-08-21T09:11:54;41.10;66.20
19552;DHT22;9921;47.186;9.778;2022-08-21T09:14:29;41.10;64.00
19552;DHT22;9921;47.186;9.778;2022-08-21T09:17:14;41.40;62.20
19552;DHT22;9921;47.186;9.778;2022-08-21T09:19:55;41.20;60.90
19552;DHT22;9921;47.186;9.778;2022-08-21T09:22:33;41.20;63.30
19552;DHT22;9921;47.186;9.778;2022-08-21T09:25:08;41.10;60.70
19552;DHT22;9921;47.186;9.778;2022-08-21T09:27:37;41.10;60.70
19552;DHT22;9921;47.186;9.778;2022-08-21T09:30:07;41.10;59.40
19552;DHT22;9921;47.186;9.778;2022-08-21T09:32:36;41.30;60.30
19552;DHT22;9921;47.186;9.778;2022-08-21T09:35:07;41.00;59.10
19552;DHT22;9921;47.186;9.778;2022-08-21T09:37:45;40.80;59.80
19552;DHT22;9921;47.186;9.778;2022-08-21T09:40:23;40.70;61.60
19552;DHT22;9921;47.186;9.778;2022-08-21T09:42:58;41.00;60.30
19552;DHT22;9921;47.186;9.778;2022-08-21T09:45:25;41.10;60.50
19552;DHT22;9921;47.186;9.778;2022-08-21T09:47:53;41.30;59.70
19552;DHT22;9921;47.186;9.778;2022-08-21T09:50:23;41.50;58.90
19552;DHT22;9921;47.186;9.778;2022-08-21T09:52:53;41.50;59.70
19552;DHT22;9921;47.186;9.778;2022-08-21T09:55:32;41.30;59.80
19552;DHT22;9921;47.186;9.778;2022-08-21T09:58:17;41.20;59.30
19552;DHT22;9921;47.186;9.778;2022-08-21T10:00:44;40.70;58.90
19552;DHT22;9921;47.186;9.778;2022-08-21T10:03:17;41.00;61.10
19552;DHT22;9921;47.186;9.778;2022-08-21T10:05:55;41.60;61.00
19552;DHT22;9921;47.186;9.778;2022-08-21T10:08:25;41.30;60.10
19552;DHT22;9921;47.186;9.778;2022-08-21T10:10:55;41.70;59.20
19552;DHT22;9921;47.186;9.778;2022-08-21T10:13:32;41.90;57.80
19552;DHT22;9921;47.186;9.778;2022-08-21T10:16:15;42.10;58.10
19552;DHT22;9921;47.186;9.778;2022-08-21T10:18:52;42.00;58.60
19552;DHT22;9921;47.186;9.778;2022-08-21T10:21:27;42.40;58.00
19552;DHT22;9921;47.186;9.778;2022-08-21T10:24:03;42.30;57.20
19552;DHT22;9921;47.186;9.778;2022-08-21T10:26:48;42.00;57.80
19552;DHT22;9921;47.186;9.778;2022-08-21T10:29:31;41.80;57.50
19552;DHT22;9921;47.186;9.778;2022-08-21T10:32:05;42.20;58.40
19552;DHT22;9921;47.186;9.778;2022-08-21T10:34:45;41.70;57.60
19552;DHT22;9921;47.186;9.778;2022-08-21T10:37:25;41.60;58.10
19552;DHT22;9921;47.186;9.778;2022-08-21T10:40:06;41.40;57.60
19552;DHT22;9921;47.186;9.778;2022-08-21T10:42:38;41.40;59.50
19552;DHT22;9921;47.186;9.778;2022-08-21T10:45:19;41.20;58.70
19552;DHT22;9921;47.186;9.778;2022-08-21T10:47:53;41.60;58.70
19552;DHT22;9921;47.186;9.778;2022-08-21T10:50:30;41.70;57.50
19552;DHT22;9921;47.186;9.778;2022-08-21T10:53:16;41.90;56.90
19552;DHT22;9921;47.186;9.778;2022-08-21T10:55:52;41.90;58.80
19552;DHT22;9921;47.186;9.778;2022-08-21T10:58:25;41.70;57.80
19552;DHT22;9921;47.186;9.778;2022-08-21T11:00:57;41.70;57.90
19552;DHT22;9921;47.186;9.778;2022-08-21T11:03:29;41.00;59.40
19552;DHT22;9921;47.186;9.778;2022-08-21T11:06:04;40.90;60.10
19552;DHT22;9921;47.186;9.778;2022-08-21T11:08:38;40.70;60.30
19552;DHT22;9921;47.186;9.778;2022-08-21T11:11:10;40.70;59.50
19552;DHT22;9921;47.186;9.778;2022-08-21T11:13:41;40.60;60.20
19552;DHT22;9921;47.186;9.778;2022-08-21T11:16:15;40.70;58.70
19552;DHT22;9921;47.186;9.778;2022-08-21T11:18:46;40.80;60.50
19552;DHT22;9921;47.186;9.778;2022-08-21T11:21:26;40.80;59.50
19552;DHT22;9921;47.186;9.778;2022-08-21T11:24:17;40.30;59.60
19552;DHT22;9921;47.186;9.778;2022-08-21T11:26:49;40.30;59.90
19552;DHT22;9921;47.186;9.778;2022-08-21T11:29:22;40.20;59.80
19552;DHT22;9921;47.186;9.778;2022-08-21T11:32:15;40.20;60.90
19552;DHT22;9921;47.186;9.778;2022-08-21T11:34:54;40.10;61.30
19552;DHT22;9921;47.186;9.778;2022-08-21T11:37:36;40.30;60.70
19552;DHT22;9921;47.186;9.778;2022-08-21T11:40:15;40.40;61.10
19552;DHT22;9921;47.186;9.778;2022-08-21T11:42:52;40.00;59.00
19552;DHT22;9921;47.186;9.778;2022-08-21T11:45:26;39.40;60.00
19552;DHT22;9921;47.186;9.778;2022-08-21T11:48:00;38.80;59.20
19552;DHT22;9921;47.186;9.778;2022-08-21T11:50:32;38.40;62.90
19552;DHT22;9921;47.186;9.778;2022-08-21T11:53:05;38.00;62.30
19552;DHT22;9921;47.186;9.778;2022-08-21T11:55:39;37.60;63.50
19552;DHT22;9921;47.186;9.778;2022-08-21T11:58:11;37.30;65.20
19552;DHT22;9921;47.186;9.778;2022-08-21T12:00:42;37.20;63.50
19552;DHT22;9921;47.186;9.778;2022-08-21T12:03:14;37.20;66.30
19552;DHT22;9921;47.186;9.778;2022-08-21T12:05:46;36.70;64.30
19552;DHT22;9921;47.186;9.778;2022-08-21T12:08:27;36.20;67.60
19552;DHT22;9921;47.186;9.778;2022-08-21T12:11:03;36.00;65.70
19552;DHT22;9921;47.186;9.778;2022-08-21T12:13:31;35.80;69.20
19552;DHT22;9921;47.186;9.778;2022-08-21T12:16:06;35.20;68.40
19552;DHT22;9921;47.186;9.778;2022-08-21T12:18:34;35.10;70.10
19552;DHT22;9921;47.186;9.778;2022-08-21T12:21:16;35.00;72.30
19552;DHT22;9921;47.186;9.778;2022-08-21T12:23:48;34.80;71.30
19552;DHT22;9921;47.186;9.778;2022-08-21T12:26:31;34.50;71.80
19552;DHT22;9921;47.186;9.778;2022-08-21T12:29:13;34.00;73.40
19552;DHT22;9921;47.186;9.778;2022-08-21T12:32:18;33.40;72.10
19552;DHT22;9921;47.186;9.778;2022-08-21T12:34:49;33.00;75.20
19552;DHT22;9921;47.186;9.778;2022-08-21T12:37:20;32.80;75.40
19552;DHT22;9921;47.186;9.778;2022-08-21T12:39:51;32.50;75.50
19552;DHT22;9921;47.186;9.778;2022-08-21T12:42:22;32.20;75.00
19552;DHT22;9921;47.186;9.778;2022-08-21T12:44:53;31.80;77.90
19552;DHT22;9921;47.186;9.778;2022-08-21T12:47:27;31.50;77.80
19552;DHT22;9921;47.186;9.778;2022-08-21T12:50:01;31.50;77.30
19552;DHT22;9921;47.186;9.778;2022-08-21T12:52:33;31.20;75.10
19552;DHT22;9921;47.186;9.778;2022-08-21T12:55:00;30.80;77.20
19552;DHT22;9921;47.186;9.778;2022-08-21T12:57:29;30.60;78.80
19552;DHT22;9921;47.186;9.778;2022-08-21T12:59:58;30.60;79.80
19552;DHT22;9921;47.186;9.778;2022-08-21T13:02:30;30.60;81.40
19552;DHT22;9921;47.186;9.778;2022-08-21T13:04:58;30.50;82.30
19552;DHT22;9921;47.186;9.778;2022-08-21T13:07:30;30.30;76.30
19552;DHT22;9921;47.186;9.778;2022-08-21T13:10:01;30.20;75.60
19552;DHT22;9921;47.186;9.778;2022-08-21T13:12:31;30.10;80.70
19552;DHT22;9921;47.186;9.778;2022-08-21T13:15:03;30.10;78.50
19552;DHT22;9921;47.186;9.778;2022-08-21T13:17:34;30.00;77.60
19552;DHT22;9921;47.186;9.778;2022-08-21T13:20:05;30.00;77.10
19552;DHT22;9921;47.186;9.778;2022-08-21T13:22:40;29.80;77.60
19552;DHT22;9921;47.186;9.778;2022-08-21T13:25:10;29.70;77.20
19552;DHT22;9921;47.186;9.778;2022-08-21T13:27:40;29.70;77.20
19552;DHT22;9921;47.186;9.778;2022-08-21T13:30:10;29.60;78.40
19552;DHT22;9921;47.186;9.778;2022-08-21T13:32:41;29.60;79.10
19552;DHT22;9921;47.186;9.778;2022-08-21T13:35:15;29.60;77.00
19552;DHT22;9921;47.186;9.778;2022-08-21T13:37:43;29.50;79.10
19552;DHT22;9921;47.186;9.778;2022-08-21T13:40:14;29.60;77.70
19552;DHT22;9921;47.186;9.778;2022-08-21T13:42:46;29.50;75.10
19552;DHT22;9921;47.186;9.778;2022-08-21T13:45:18;29.40;79.10
19552;DHT22;9921;47.186;9.778;2022-08-21T13:47:47;29.30;77.60
19552;DHT22;9921;47.186;9.778;2022-08-21T13:50:15;29.30;77.60
19552;DHT22;9921;47.186;9.778;2022-08-21T13:52:49;29.20;78.50
19552;DHT22;9921;47.186;9.778;2022-08-21T13:55:17;29.20;79.70
19552;DHT22;9921;47.186;9.778;2022-08-21T13:57:46;29.20;77.40
19552;DHT22;9921;47.186;9.778;2022-08-21T14:00:16;29.00;76.80
19552;DHT22;9921;47.186;9.778;2022-08-21T14:02:45;29.00;80.00
19552;DHT22;9921;47.186;9.778;2022-08-21T14:05:20;29.10;79.70
19552;DHT22;9921;47.186;9.778;2022-08-21T14:07:50;29.10;81.50
19552;DHT22;9921;47.186;9.778;2022-08-21T14:10:19;29.20;82.50
19552;DHT22;9921;47.186;9.778;2022-08-21T14:12:50;29.20;76.50
19552;DHT22;9921;47.186;9.778;2022-08-21T14:15:23;29.10;79.30
19552;DHT22;9921;47.186;9.778;2022-08-21T14:17:51;29.00;79.50
19552;DHT22;9921;47.186;9.778;2022-08-21T14:20:27;29.00;80.50
19552;DHT22;9921;47.186;9.778;2022-08-21T14:22:55;29.00;83.70
19552;DHT22;9921;47.186;9.778;2022-08-21T14:25:30;29.00;81.90
19552;DHT22;9921;47.186;9.778;2022-08-21T14:28:12;28.80;83.10
19552;DHT22;9921;47.186;9.778;2022-08-21T14:30:42;28.80;83.70
19552;DHT22;9921;47.186;9.778;2022-08-21T14:33:13;28.70;81.50
19552;DHT22;9921;47.186;9.778;2022-08-21T14:35:41;28.70;81.90
19552;DHT22;9921;47.186;9.778;2022-08-21T14:38:12;28.80;83.70
19552;DHT22;9921;47.186;9.778;2022-08-21T14:40:40;28.80;81.90
19552;DHT22;9921;47.186;9.778;2022-08-21T14:43:09;28.70;81.50
19552;DHT22;9921;47.186;9.778;2022-08-21T14:45:36;28.70;81.80
19552;DHT22;9921;47.186;9.778;2022-08-21T14:48:07;28.50;83.00
19552;DHT22;9921;47.186;9.778;2022-08-21T14:50:34;28.40;84.00
19552;DHT22;9921;47.186;9.778;2022-08-21T14:53:01;28.40;83.90
19552;DHT22;9921;47.186;9.778;2022-08-21T14:55:29;28.40;84.30
19552;DHT22;9921;47.186;9.778;2022-08-21T14:57:56;28.50;86.00
19552;DHT22;9921;47.186;9.778;2022-08-21T15:00:25;28.30;82.60
19552;DHT22;9921;47.186;9.778;2022-08-21T15:02:52;28.20;84.70
19552;DHT22;9921;47.186;9.778;2022-08-21T15:05:20;28.30;87.10
19552;DHT22;9921;47.186;9.778;2022-08-21T15:07:46;28.40;85.20
19552;DHT22;9921;47.186;9.778;2022-08-21T15:10:13;28.40;83.70
19552;DHT22;9921;47.186;9.778;2022-08-21T15:12:40;28.30;85.20
19552;DHT22;9921;47.186;9.778;2022-08-21T15:15:08;28.20;83.50
19552;DHT22;9921;47.186;9.778;2022-08-21T15:17:37;28.00;87.50
19552;DHT22;9921;47.186;9.778;2022-08-21T15:20:04;27.90;87.40
19552;DHT22;9921;47.186;9.778;2022-08-21T15:22:32;27.90;87.90
19552;DHT22;9921;47.186;9.778;2022-08-21T15:24:59;27.80;83.80
19552;DHT22;9921;47.186;9.778;2022-08-21T15:27:27;27.70;85.70
19552;DHT22;9921;47.186;9.778;2022-08-21T15:29:54;27.60;84.30
19552;DHT22;9921;47.186;9.778;2022-08-21T15:32:23;27.50;83.80
19552;DHT22;9921;47.186;9.778;2022-08-21T15:34:53;27.40;82.60
19552;DHT22;9921;47.186;9.778;2022-08-21T15:37:23;27.00;81.70
19552;DHT22;9921;47.186;9.778;2022-08-21T15:39:51;26.90;82.00
19552;DHT22;9921;47.186;9.778;2022-08-21T15:42:19;26.80;81.00
19552;DHT22;9921;47.186;9.778;2022-08-21T15:44:47;26.80;83.70
19552;DHT22;9921;47.186;9.778;2022-08-21T15:47:16;26.70;82.20
19552;DHT22;9921;47.186;9.778;2022-08-21T15:49:43;26.60;83.10
19552;DHT22;9921;47.186;9.778;2022-08-21T15:52:12;26.50;83.40
19552;DHT22;9921;47.186;9.778;2022-08-21T15:54:39;26.40;81.50
19552;DHT22;9921;47.186;9.778;2022-08-21T15:57:06;26.30;83.10
19552;DHT22;9921;47.186;9.778;2022-08-21T15:59:40;26.10;81.90
19552;DHT22;9921;47.186;9.778;2022-08-21T16:02:14;26.00;82.00